createdAt,value
2022-10-19T00:02:11.702Z,0.50
2022-10-19T00:05:14.589Z,0.70
2022-10-19T00:08:17.033Z,0.50
2022-10-19T00:11:19.633Z,0.50
2022-10-19T00:14:24.802Z,0.50
2022-10-19T00:17:27.208Z,0.45
2022-10-19T00:20:29.368Z,0.52
2022-10-19T00:23:33.458Z,0.60
2022-10-19T00:26:35.792Z,0.43
2022-10-19T00:29:38.859Z,0.50
2022-10-19T00:32:40.995Z,0.50
2022-10-19T00:35:44.160Z,0.70
2022-10-19T00:38:47.068Z,0.60
2022-10-19T00:41:49.579Z,0.55
2022-10-19T00:44:51.535Z,0.40
2022-10-19T00:47:54.595Z,0.40
2022-10-19T00:50:58.823Z,0.50
2022-10-19T00:54:03.352Z,0.50
2022-10-19T00:57:06.706Z,0.70
2022-10-19T01:00:09.526Z,0.32
2022-10-19T01:03:13.591Z,0.50
2022-10-19T01:06:18.967Z,0.60
2022-10-19T01:09:22.481Z,0.50
2022-10-19T01:13:03.903Z,0.38
2022-10-19T01:16:32.387Z,0.32
2022-10-19T01:20:09.970Z,0.45
2022-10-19T01:23:31.298Z,0.40
2022-10-19T01:26:52.808Z,0.57
2022-10-19T01:30:08.908Z,0.50
2022-10-19T01:33:29.501Z,0.38
2022-10-19T01:36:49.933Z,0.68
2022-10-19T01:39:59.475Z,0.45
2022-10-19T01:43:14.430Z,0.30
2022-10-19T01:46:26.943Z,0.30
2022-10-19T01:49:36.678Z,0.50
2022-10-19T01:52:41.263Z,0.50
2022-10-19T01:55:46.185Z,0.38
2022-10-19T01:58:50.718Z,1.10
2022-10-19T02:01:54.791Z,0.43
2022-10-19T02:04:58.486Z,0.35
2022-10-19T02:08:06.561Z,0.40
2022-10-19T02:11:09.224Z,0.40
2022-10-19T02:14:15.401Z,0.43
2022-10-19T02:17:22.871Z,0.52
2022-10-19T02:20:26.070Z,0.32
2022-10-19T02:23:28.560Z,0.57
2022-10-19T02:26:30.816Z,0.50
2022-10-19T02:29:34.904Z,0.40
2022-10-19T02:32:36.969Z,0.30
2022-10-19T02:35:39.850Z,0.60
2022-10-19T02:38:42.393Z,0.60
2022-10-19T02:41:51.300Z,0.35
2022-10-19T02:45:14.317Z,0.43
2022-10-19T02:48:24.930Z,0.50
2022-10-19T02:51:35.164Z,0.30
2022-10-19T02:54:41.366Z,0.60
2022-10-19T02:57:43.529Z,0.40
2022-10-19T03:00:45.936Z,0.40
2022-10-19T03:03:48.796Z,0.47
2022-10-19T03:06:51.068Z,0.65
2022-10-19T03:09:53.170Z,0.30
2022-10-19T03:12:58.754Z,0.45
2022-10-19T03:16:12.569Z,0.50
2022-10-19T03:19:15.304Z,0.40
2022-10-19T03:22:17.564Z,0.50
2022-10-19T03:25:20.275Z,0.75
2022-10-19T03:28:22.178Z,0.30
2022-10-19T03:31:24.977Z,0.40
2022-10-19T03:34:27.072Z,0.47
2022-10-19T03:37:29.760Z,0.50
2022-10-19T03:40:31.830Z,0.30
2022-10-19T03:43:35.259Z,0.43
2022-10-19T03:46:40.059Z,0.40
2022-10-19T03:49:44.065Z,0.38
2022-10-19T03:52:46.441Z,0.40
2022-10-19T03:55:49.104Z,0.32
2022-10-19T03:58:53.272Z,0.22
2022-10-19T04:04:57.492Z,0.30
2022-10-19T04:08:00.193Z,0.32
2022-10-19T04:11:05.483Z,0.30
2022-10-19T04:17:11.311Z,0.35
2022-10-19T04:20:13.775Z,0.30
2022-10-19T04:26:21.495Z,0.30
2022-10-19T04:29:29.461Z,0.30
2022-10-19T04:32:33.285Z,0.30
2022-10-19T04:35:35.887Z,0.30
2022-10-19T04:38:39.156Z,0.20
2022-10-19T04:41:41.221Z,0.40
2022-10-19T04:44:43.692Z,0.50
2022-10-19T04:47:45.644Z,0.20
2022-10-19T04:50:48.402Z,0.40
2022-10-19T04:53:59.610Z,0.47
2022-10-19T04:57:02.350Z,0.38
2022-10-19T05:00:04.860Z,0.20
2022-10-19T05:03:07.613Z,0.20
2022-10-19T05:06:10.673Z,0.30
2022-10-19T05:09:13.319Z,0.40
2022-10-19T05:12:15.330Z,0.40
2022-10-19T05:15:18.124Z,0.40
2022-10-19T05:18:20.386Z,0.40
2022-10-19T05:21:22.938Z,0.25
2022-10-19T05:24:25.346Z,0.30
2022-10-19T05:27:28.652Z,0.40
2022-10-19T05:30:31.756Z,0.45
2022-10-19T05:33:34.906Z,0.40
2022-10-19T05:36:40.049Z,0.43
2022-10-19T05:39:43.918Z,0.30
2022-10-19T05:42:45.901Z,0.40
2022-10-19T05:45:48.331Z,0.30
2022-10-19T05:48:50.647Z,0.35
2022-10-19T05:51:53.857Z,0.40
2022-10-19T05:54:56.734Z,0.22
2022-10-19T05:58:00.053Z,0.40
2022-10-19T06:01:03.897Z,0.22
2022-10-19T06:04:07.553Z,0.28
2022-10-19T06:07:09.587Z,0.50
2022-10-19T06:10:12.255Z,0.50
2022-10-19T06:13:16.632Z,0.30
2022-10-19T06:16:20.694Z,0.65
2022-10-19T06:19:22.696Z,0.40
2022-10-19T06:22:25.331Z,0.13
2022-10-19T06:25:27.610Z,0.40
2022-10-19T06:28:30.109Z,0.30
2022-10-19T06:31:34.951Z,0.20
2022-10-19T06:34:37.537Z,0.30
2022-10-19T06:37:39.773Z,0.38
2022-10-19T06:40:42.417Z,0.40
2022-10-19T06:43:44.759Z,0.50
2022-10-19T06:46:47.443Z,0.30
2022-10-19T06:49:49.800Z,0.30
2022-10-19T06:52:52.332Z,0.22
2022-10-19T06:56:01.638Z,0.30
2022-10-19T06:59:04.890Z,0.47
2022-10-19T07:02:07.083Z,0.40
2022-10-19T07:05:10.379Z,0.30
2022-10-19T07:08:12.607Z,0.38
2022-10-19T07:11:17.683Z,0.50
2022-10-19T07:14:19.798Z,0.25
2022-10-19T07:17:22.538Z,0.30
2022-10-19T07:20:26.025Z,0.85
2022-10-19T07:23:30.685Z,0.38
2022-10-19T07:26:34.104Z,0.55
2022-10-19T07:29:36.826Z,0.40
2022-10-19T07:32:43.122Z,0.60
2022-10-19T07:35:48.475Z,0.40
2022-10-19T07:38:50.972Z,0.25
2022-10-19T07:41:53.705Z,0.32
2022-10-19T07:44:56.780Z,0.50
2022-10-19T07:47:59.842Z,0.43
2022-10-19T07:51:04.777Z,0.32
2022-10-19T07:54:07.494Z,0.50
2022-10-19T07:57:12.673Z,0.40
2022-10-19T08:00:16.759Z,0.30
2022-10-19T08:04:09.665Z,0.53
2022-10-19T08:06:41.596Z,0.40
2022-10-19T08:09:59.053Z,0.50
2022-10-19T08:13:01.906Z,0.75
2022-10-19T08:16:05.511Z,0.50
2022-10-19T08:19:10.795Z,0.63
2022-10-19T08:25:15.831Z,0.50
2022-10-19T08:28:18.206Z,0.63
2022-10-19T08:34:28.108Z,0.60
2022-10-19T08:37:44.393Z,0.60
2022-10-19T08:40:47.725Z,0.47
2022-10-19T08:44:10.204Z,0.47
2022-10-19T08:47:37.031Z,0.47
2022-10-19T08:50:43.730Z,0.63
2022-10-19T08:53:55.780Z,0.57
2022-10-19T08:57:05.558Z,0.65
2022-10-19T09:00:26.438Z,0.85
2022-10-19T09:03:54.910Z,0.70
2022-10-19T09:07:22.594Z,0.65
2022-10-19T09:10:46.496Z,0.88
2022-10-19T09:14:04.816Z,1.02
2022-10-19T09:17:15.290Z,1.05
2022-10-19T09:20:23.122Z,1.05
2022-10-19T09:23:31.875Z,0.68
2022-10-19T09:26:40.671Z,0.90
2022-10-19T09:29:46.826Z,0.60
2022-10-19T09:33:02.855Z,0.50
2022-10-19T09:36:06.886Z,1.00
2022-10-19T09:39:14.638Z,0.80
2022-10-19T09:42:30.643Z,0.77
2022-10-19T09:45:36.818Z,0.73
2022-10-19T09:48:47.967Z,0.98
2022-10-19T09:51:53.011Z,1.10
2022-10-19T09:55:13.988Z,0.68
2022-10-19T09:58:18.877Z,0.77
2022-10-19T10:01:43.198Z,0.88
2022-10-19T10:04:57.154Z,0.93
2022-10-19T10:08:00.098Z,1.05
2022-10-19T10:11:12.758Z,0.95
2022-10-19T10:14:21.852Z,0.90
2022-10-19T10:17:30.739Z,0.60
2022-10-19T10:20:33.005Z,0.80
2022-10-19T10:23:36.737Z,0.70
2022-10-19T10:26:46.789Z,0.75
2022-10-19T10:33:13.265Z,0.70
2022-10-19T10:36:23.571Z,0.80
2022-10-19T10:39:28.651Z,0.60
2022-10-19T10:42:43.704Z,0.95
2022-10-19T10:45:50.162Z,1.05
2022-10-19T10:48:59.253Z,0.60
2022-10-19T10:52:06.836Z,0.73
2022-10-19T10:55:08.878Z,0.52
2022-10-19T10:58:25.446Z,0.52
2022-10-19T11:01:37.046Z,0.57
2022-10-19T11:04:47.395Z,0.75
2022-10-19T11:08:19.141Z,0.55
2022-10-19T11:11:25.823Z,0.57
2022-10-19T11:14:47.203Z,0.60
2022-10-19T11:18:03.692Z,0.63
2022-10-19T11:21:28.236Z,0.90
2022-10-19T11:27:52.071Z,1.00
2022-10-19T11:31:01.768Z,1.10
2022-10-19T11:34:03.818Z,0.70
2022-10-19T11:37:29.031Z,0.80
2022-10-19T11:44:47.010Z,1.08
2022-10-19T11:48:00.102Z,1.00
2022-10-19T11:51:26.427Z,0.82
2022-10-19T11:55:04.440Z,0.90
2022-10-19T11:58:34.642Z,0.63
2022-10-19T12:01:40.589Z,0.85
2022-10-19T12:04:57.543Z,1.00
2022-10-19T12:08:11.718Z,0.80
2022-10-19T12:11:49.518Z,0.80
2022-10-19T12:14:57.446Z,1.27
2022-10-19T12:18:22.954Z,0.82
2022-10-19T12:21:31.189Z,0.95
2022-10-19T12:24:34.775Z,1.35
2022-10-19T12:27:38.874Z,0.90
2022-10-19T12:30:41.924Z,0.63
2022-10-19T12:34:00.933Z,1.00
2022-10-19T12:37:19.810Z,1.17
2022-10-19T12:40:33.011Z,1.10
2022-10-19T12:43:55.263Z,0.90
2022-10-19T12:47:09.299Z,1.02
2022-10-19T12:50:11.736Z,0.70
2022-10-19T12:53:31.377Z,1.23
2022-10-19T12:56:50.351Z,0.88
2022-10-19T13:00:01.728Z,1.20
2022-10-19T13:03:07.632Z,1.00
2022-10-19T13:06:14.460Z,1.02
2022-10-19T13:09:41.939Z,0.75
2022-10-19T13:12:47.370Z,1.13
2022-10-19T13:15:52.591Z,0.80
2022-10-19T13:19:13.088Z,0.60
2022-10-19T13:22:27.926Z,0.88
2022-10-19T13:25:35.170Z,0.80
2022-10-19T13:28:39.371Z,1.05
2022-10-19T13:31:42.965Z,0.85
2022-10-19T13:34:46.942Z,0.90
2022-10-19T13:38:11.543Z,1.25
2022-10-19T13:44:36.545Z,1.08
2022-10-19T13:47:44.421Z,0.90
2022-10-19T13:50:59.987Z,1.30
2022-10-19T13:54:35.166Z,0.80
2022-10-19T13:58:00.463Z,1.02
2022-10-19T14:01:09.285Z,0.82
2022-10-19T14:04:49.651Z,0.90
2022-10-19T14:08:21.959Z,1.02
2022-10-19T14:11:33.646Z,1.10
2022-10-19T14:14:43.034Z,0.88
2022-10-19T14:17:48.210Z,0.93
2022-10-19T14:21:01.045Z,0.75
2022-10-19T14:24:20.150Z,0.80
2022-10-19T14:27:24.989Z,0.80
2022-10-19T14:30:27.145Z,1.35
2022-10-19T14:33:34.569Z,0.90
2022-10-19T14:36:39.447Z,0.68
2022-10-19T14:39:42.676Z,1.33
2022-10-19T14:42:46.678Z,0.80
2022-10-19T14:49:11.454Z,1.00
2022-10-19T14:52:29.341Z,0.98
2022-10-19T14:55:37.405Z,0.70
2022-10-19T14:59:06.981Z,0.70
2022-10-19T15:02:34.516Z,1.00
2022-10-19T15:05:46.836Z,0.88
2022-10-19T15:08:55.522Z,1.02
2022-10-19T15:12:08.784Z,0.75
2022-10-19T15:15:29.854Z,0.85
2022-10-19T15:18:55.096Z,0.77
2022-10-19T15:22:13.031Z,0.82
2022-10-19T15:25:15.393Z,0.70
2022-10-19T15:28:41.961Z,1.00
2022-10-19T15:31:45.242Z,0.73
2022-10-19T15:34:47.513Z,1.05
2022-10-19T15:37:51.687Z,0.80
2022-10-19T15:41:00.385Z,0.60
2022-10-19T15:44:05.222Z,0.98
2022-10-19T15:47:22.477Z,0.63
2022-10-19T15:50:40.864Z,0.80
2022-10-19T15:53:43.761Z,0.82
2022-10-19T15:56:50.520Z,0.90
2022-10-19T15:59:52.964Z,0.90
2022-10-19T16:02:55.313Z,0.82
2022-10-19T16:05:57.301Z,0.82
2022-10-19T16:09:00.706Z,0.85
2022-10-19T16:12:03.153Z,1.10
2022-10-19T16:15:06.124Z,1.10
2022-10-19T16:18:11.249Z,1.13
2022-10-19T16:21:14.729Z,1.20
2022-10-19T16:24:16.843Z,1.10
2022-10-19T16:27:19.181Z,1.15
2022-10-19T16:30:21.752Z,1.20
2022-10-19T16:33:24.525Z,1.17
2022-10-19T16:36:26.789Z,1.05
2022-10-19T16:39:30.645Z,0.88
2022-10-19T16:42:35.868Z,1.10
2022-10-19T16:45:43.189Z,0.80
2022-10-19T16:48:45.202Z,1.27
2022-10-19T16:51:48.029Z,1.20
2022-10-19T16:54:50.822Z,1.23
2022-10-19T16:57:53.632Z,1.15
2022-10-19T17:00:56.695Z,1.38
2022-10-19T17:03:59.546Z,1.40
2022-10-19T17:07:01.499Z,1.35
2022-10-19T17:10:04.011Z,1.80
2022-10-19T17:13:06.220Z,1.20
2022-10-19T17:16:10.359Z,1.90
2022-10-19T17:19:13.043Z,1.80
2022-10-19T17:22:15.725Z,1.58
2022-10-19T17:25:18.009Z,1.48
2022-10-19T17:28:22.922Z,1.52
2022-10-19T17:31:29.368Z,1.73
2022-10-19T17:34:32.172Z,1.67
2022-10-19T17:37:35.208Z,1.40
2022-10-19T17:40:37.698Z,1.75
2022-10-19T17:43:42.313Z,1.85
2022-10-19T17:46:45.069Z,1.63
2022-10-19T17:49:47.585Z,1.70
2022-10-19T17:52:49.991Z,1.60
2022-10-19T17:55:52.549Z,1.65
2022-10-19T17:58:57.345Z,1.70
2022-10-19T18:05:02.777Z,2.38
2022-10-19T18:08:04.991Z,1.50
2022-10-19T18:11:09.456Z,1.60
2022-10-19T18:14:13.916Z,1.50
2022-10-19T18:17:16.759Z,1.80
2022-10-19T18:20:18.939Z,1.80
2022-10-19T18:23:21.871Z,1.77
2022-10-19T18:26:26.101Z,2.22
2022-10-19T18:29:28.958Z,1.73
2022-10-19T18:32:31.938Z,2.20
2022-10-19T18:35:41.391Z,1.80
2022-10-19T18:38:44.999Z,2.05
2022-10-19T18:41:52.002Z,1.70
2022-10-19T18:44:54.158Z,1.88
2022-10-19T18:47:56.714Z,1.63
2022-10-19T18:51:03.004Z,1.83
2022-10-19T18:54:05.669Z,1.58
2022-10-19T18:57:08.233Z,1.40
2022-10-19T19:00:11.486Z,1.55
2022-10-19T19:03:13.646Z,1.50
2022-10-19T19:06:19.820Z,1.85
2022-10-19T19:09:21.977Z,1.63
2022-10-19T19:12:24.623Z,1.60
2022-10-19T19:15:27.118Z,1.50
2022-10-19T19:18:29.686Z,1.45
2022-10-19T19:21:32.884Z,1.67
2022-10-19T19:24:36.139Z,1.73
2022-10-19T19:30:46.873Z,1.77
2022-10-19T19:33:48.924Z,1.83
2022-10-19T19:36:51.715Z,1.48
2022-10-19T19:39:53.605Z,1.92
2022-10-19T19:42:56.001Z,2.10
2022-10-19T19:46:03.256Z,1.77
2022-10-19T19:49:08.826Z,1.67
2022-10-19T19:52:10.840Z,2.15
2022-10-19T19:55:13.187Z,1.80
2022-10-19T19:58:16.146Z,1.85
2022-10-19T20:01:21.084Z,1.80
2022-10-19T20:07:27.284Z,1.65
2022-10-19T20:10:29.621Z,1.50
2022-10-19T20:13:32.116Z,1.73
2022-10-19T20:16:34.539Z,1.83
2022-10-19T20:19:37.970Z,2.27
2022-10-19T20:22:40.267Z,1.30
2022-10-19T20:25:42.581Z,1.85
2022-10-19T20:28:44.859Z,1.48
2022-10-19T20:31:47.405Z,1.60
2022-10-19T20:34:49.580Z,1.67
2022-10-19T20:37:53.362Z,1.30
2022-10-19T20:40:56.051Z,1.38
2022-10-19T20:43:58.393Z,1.48
2022-10-19T20:47:00.370Z,1.60
2022-10-19T20:53:05.868Z,1.48
2022-10-19T20:56:10.595Z,1.88
2022-10-19T20:59:15.916Z,1.30
2022-10-19T21:02:18.300Z,1.48
2022-10-19T21:05:20.238Z,1.45
2022-10-19T21:08:22.628Z,1.67
2022-10-19T21:11:30.607Z,1.10
2022-10-19T21:14:33.417Z,1.25
2022-10-19T21:17:35.654Z,1.35
2022-10-19T21:20:38.479Z,1.45
2022-10-19T21:23:41.898Z,1.13
2022-10-19T21:26:44.916Z,1.60
2022-10-19T21:29:47.119Z,1.20
2022-10-19T21:32:50.320Z,1.20
2022-10-19T21:35:52.522Z,1.58
2022-10-19T21:38:54.886Z,1.95
2022-10-19T21:41:59.068Z,1.23
2022-10-19T21:45:25.315Z,1.10
2022-10-19T21:48:24.596Z,1.63
2022-10-19T21:51:35.562Z,1.10
2022-10-19T21:54:37.476Z,1.17
2022-10-19T21:57:39.995Z,1.40
2022-10-19T22:00:43.549Z,1.30
2022-10-19T22:03:46.405Z,1.30
2022-10-19T22:06:48.631Z,1.10
2022-10-19T22:09:51.050Z,1.40
2022-10-19T22:12:53.038Z,1.77
2022-10-19T22:15:55.257Z,1.80
2022-10-19T22:18:58.088Z,1.20
2022-10-19T22:22:00.497Z,1.50
2022-10-19T22:25:02.544Z,1.52
2022-10-19T22:28:05.319Z,1.40
2022-10-19T22:31:07.281Z,1.50
2022-10-19T22:34:12.879Z,1.20
2022-10-19T22:37:14.958Z,1.48
2022-10-19T22:40:17.829Z,1.48
2022-10-19T22:43:21.828Z,1.45
2022-10-19T22:49:26.178Z,1.35
2022-10-19T22:52:28.669Z,1.45
2022-10-19T22:55:30.675Z,1.30
2022-10-19T22:58:32.973Z,1.35
2022-10-19T23:01:35.810Z,1.33
2022-10-19T23:04:38.360Z,1.45
2022-10-19T23:07:40.467Z,0.93
2022-10-19T23:10:43.734Z,1.40
2022-10-19T23:13:45.969Z,1.67
2022-10-19T23:16:48.915Z,1.45
2022-10-19T23:19:50.914Z,1.33
2022-10-19T23:22:57.169Z,1.38
2022-10-19T23:26:05.569Z,1.35
2022-10-19T23:29:08.040Z,1.23
2022-10-19T23:32:10.000Z,1.00
2022-10-19T23:35:12.240Z,1.50
2022-10-19T23:38:14.300Z,1.17
2022-10-19T23:41:18.127Z,1.33
2022-10-19T23:44:20.055Z,1.05
2022-10-19T23:47:22.601Z,1.25
2022-10-19T23:50:24.567Z,1.00
2022-10-19T23:53:28.583Z,1.10
2022-10-19T23:56:30.898Z,1.10
2022-10-19T23:59:33.804Z,1.15
